Flight Track Log - Related Links

Times and Time Zones

All times are in EDT time to prevent confusion due to time zone crossing. See the SWA378 flight status page for this flight to view local times or setup timezone preferences in your user account.

Time Position Orientation Groundspeed Altitude Reporting Facility
EDT Latitude Longitude Course Direction KTS MPH feet Rate Location/Type
Fri 23:17:01 39.1500 -76.6333 North 274 315 5,000  Level Potomac TRACON
Fri 23:18:56 39.2833 -76.6333 360° North 306 352 10,000 1,369 Climbing Potomac TRACON
Fri 23:20:00 39.4519 -76.5035 270° West  Level Estimated
Fri 23:21:02 39.4667 -76.7167 270° West 308 354 10,500  Level Potomac TRACON
Fri 23:22:00 39.8597 -77.4500 North  Level FlightAware
Fri 23:22:02 39.4833 -76.8167 282° West 288 331 11,000  Level Potomac TRACON
Fri 23:23:02 39.5000 -76.9167 282° West 283 326 11,000 421 Level Potomac TRACON
Fri 23:23:56 39.5167 -77.0000 285° West 280 322 11,800 1,500 Climbing Potomac TRACON
Fri 23:25:02 39.5500 -77.1167 290° West 304 350 14,000 1,048 Climbing Potomac TRACON
Fri 23:26:02 39.5667 -77.2167 282° West 309 356 14,000 648 Level Potomac TRACON
Fri 23:27:58 39.5375 -77.4133 259° West 289 333 15,900 678 Climbing Washington Center
Fri 23:28:59 39.6242 -77.4611 337° Northwest 250 288 16,000 65 Climbing Washington Center
Fri 23:29:31 39.6739 -77.4903 336° Northwest 386 444 16,000 583 Level New Center
Fri 23:30:42 39.7669 -77.5775 324° Northwest 329 379 17,000 1,145 Climbing New Center
Fri 23:31:42 39.8619 -77.6650 325° Northwest 363 418 18,500 2,017 Climbing New Center
Fri 23:32:41 39.9536 -77.7364 329° Northwest 378 435 21,000 2,350 Climbing New Center
Fri 23:33:42 40.0647 -77.6933 17° North 372 428 23,200 2,262 Climbing New Center
Fri 23:34:43 40.1572 -77.6100 35° Northeast 390 449 25,600 1,900 Climbing New Center
Fri 23:35:42 40.2564 -77.5136 37° Northeast 412 474 27,000 718 Climbing New Center
Fri 23:36:40 40.3561 -77.4117 38° Northeast 439 505 27,000  Level New Center
Fri 23:37:41 40.4731 -77.2975 37° Northeast 462 532 27,000  Level New Center
Fri 23:38:42 40.5789 -77.1900 38° Northeast 467 537 27,000  Level New Center
Fri 23:39:42 40.6844 -77.0875 36° Northeast 467 537 27,000  Level New Center
Fri 23:40:40 40.7903 -76.9794 38° Northeast 467 537 27,000  Level New Center
Fri 23:41:41 40.8958 -76.8736 37° Northeast 467 537 27,000 -443 Level New Center
Fri 23:42:42 40.9969 -76.7700 38° Northeast 467 537 26,100 -950 Descending New Center
Fri 23:43:41 41.1000 -76.6661 37° Northeast 467 537 25,100 -550 Descending New Center
Fri 23:44:42 41.2008 -76.5647 37° Northeast 462 532 25,000 -50 Descending New Center
Fri 23:45:42 41.3036 -76.4631 37° Northeast 462 532 25,000  Level New Center
Fri 23:46:42 41.4067 -76.3556 38° Northeast 462 532 25,000  Level New Center
Fri 23:47:41 41.5097 -76.2478 38° Northeast 467 537 25,000  Level New Center
Fri 23:48:40 41.6014 -76.1525 38° Northeast 461 531 25,000  Level New Center
Fri 23:49:41 41.7042 -76.0469 37° Northeast 461 531 25,000 -201 Level New Center
Fri 23:51:39 41.9075 -75.8353 38° Northeast 466 536 24,400 -337 Descending Boston Center
Fri 23:52:39 42.0067 -75.7289 39° Northeast 461 531 24,000 -200 Descending Boston Center
Fri 23:53:39 42.1056 -75.6247 38° Northeast 456 525 24,000  Level Boston Center
Fri 23:54:39 42.1839 -75.5000 50° Northeast 442 509 24,000  Level Boston Center
Fri 23:55:39 42.2339 -75.3481 66° East 434 499 24,000 -300 Level Boston Center
Fri 23:56:39 42.2856 -75.2017 64° Northeast 434 499 23,400 -1,550 Descending Boston Center
Fri 23:57:39 42.3394 -75.0411 66° East 429 494 20,900 -2,300 Descending Boston Center
Fri 23:58:39 42.3906 -74.8942 65° Northeast 429 494 18,800 -2,242 Descending Boston Center
Fri 23:59:18 42.4197 -74.7969 68° East 425 489 17,200 -2,100 Descending Boston Center
Fri 23:59:39 42.4308 -74.7608 67° East 424 488 16,700 -2,143 Descending Boston Center
Sat 00:00:00 42.4531 -74.6997 64° Northeast 416 479 15,700 -2,300 Descending Boston Center
Sat 00:00:39 42.4819 -74.6078 67° East 417 480 14,400 -2,164 Descending Boston Center
Sat 00:01:01 42.5017 -74.5578 62° Northeast 410 472 13,500 -2,000 Descending Boston Center
Sat 00:01:39 42.5239 -74.4825 68° East 411 473 12,400 -2,066 Descending Boston Center
Sat 00:02:02 42.5456 -74.4214 64° Northeast 393 452 11,400 -2,200 Descending Boston Center
Sat 00:02:39 42.5722 -74.3375 67° East 388 447 10,200 -1,400 Descending Boston Center
Sat 00:03:02 42.5875 -74.2956 64° Northeast 370 426 10,000 -300 Descending Boston Center
Sat 00:03:39 42.6072 -74.2342 66° East 355 409 9,900 -590 Descending Boston Center
Sat 00:04:03 42.6267 -74.1839 62° Northeast 305 351 9,400 -1,500 Descending Boston Center
Sat 00:04:39 42.6669 -74.1372 40° Northeast 304 350 8,400 -1,667 Descending Boston Center
Sat 00:04:57 42.6861 -74.1206 33° Northeast 296 341 7,900 -1,200 Descending Boston Center
Sat 00:05:39 42.7200 -74.0847 38° Northeast 293 337 7,200 -1,574 Descending Boston Center
Sat 00:05:58 42.7558 -74.0519 34° Northeast 302 348 6,300 -2,300 Descending Boston Center
Sat 00:06:39 42.8064 -74.0078 33° Northeast 299 344 4,900 -1,770 Descending Boston Center
Sat 00:06:59 42.8275 -73.9831 41° Northeast 321 369 4,500 -800 Descending Boston Center
Sat 00:07:39 42.8678 -73.9414 37° Northeast 304 350 4,100 -600 Descending Boston Center
Sat 00:07:59 42.8931 -73.9108 42° Northeast 296 341 3,900 -700 Descending Boston Center
Sat 00:08:39 42.9044 -73.8489 76° East 248 285 3,400 -985 Descending Boston Center
Sat 00:09:06 42.8922 -73.8172 118° Southeast 191 220 2,800 -1,300 Descending Boston Center
Sat 00:09:39 42.8672 -73.8111 170° South 136 157 2,100 -800 Descending Boston Center
Sat 00:10:06 42.8486 -73.8136 186° South 140 161 2,000 -100 Descending Boston Center
Sat 00:10:39 42.8447 -73.7936 105° East 124 143 2,000 -689 Level Boston Center
Sat 00:11:07 42.8089 -73.8100 199° South 136 157 1,300 -944 Descending Boston Center
Sat 00:12:08 42.7756 -73.8064 175° South 122 140 600 -689 Descending Boston Center

Login

Don't have an account? Register now (free) for customized features, flight alerts, and more!